ヴィエンチャン の空港の天気 - METARとTAF

ワットタイ国際空港 ( VLVT / VTE ) - ラオス ヴィエンチャン
飛行場実況気象(Metar)
観測時間01/29 13:30 ICT (01/29 06:30 UTC)
風向・風速南西 1m/s
視程8000m
天気現象
全天の4割程度の雲 雲底高度 610m
全天の4割程度の雲 雲底高度 6100m
気温32℃
湿度41%
気圧1008hPa
METARVLVT 290630Z 22002KT 8000 SCT020 SCT200 32/17 Q1008 NOSIG
過去の天気等 Google飛行場航空写真 Wunderground天気予報

過去48時間のMETAR

飛行場予報(TAF)
発表時間: 1/29 12:00 ICT (1/29 05:00 UTC)
予報対象時間: 29日13時 ICT ~ 30日13時 ICT
風向・風速東 2m/s
視程8000m
少しの雲 雲底高度 610m
少しの雲 雲底高度 6100m
TAF VLVT 290500Z 2906/3006 09004KT 8000 FEW020 FEW200